Clinton, Minnesota
Current Conditions -  °F | °C
As of 9:34 AM on Thursday 25 Dec 2014 (Local Time) from KVVV Reporting Station
Scattered Clouds Scattered Clouds  
Wind Chill: 23°   Ceiling: Unl
Heat Index: 30°   Visibility: 10mi
Dew Point: 27°   Wind: 7mph
Humidity: 86%   Direction: 320°NW
Pressure: 29.68"   Gusts: NA
Location:  45.46°N, 96.43°W
Report Text: KVVV 251534Z AUTO 32006KT 10SM SCT065 M01/M03 A2968 RMK AO2
Loading
Personal Weather Stations






























Interactive Weather Map New forecast layout! Learn more

10-Day Weather Forecast

Advertisements
Track Severe Weather on mobile